createdAt,value
2019-04-11T00:01:06.005Z,102287.87
2019-04-11T00:03:35.568Z,102286.33
2019-04-11T00:06:05.444Z,102283.27
2019-04-11T00:08:35.787Z,102281.50
2019-04-11T00:11:05.924Z,102278.23
2019-04-11T00:13:36.417Z,102286.13
2019-04-11T00:16:06.789Z,102282.38
2019-04-11T00:18:35.916Z,102280.03
2019-04-11T00:21:04.604Z,102281.01
2019-04-11T00:23:34.347Z,102282.69
2019-04-11T00:26:04.988Z,102285.27
2019-04-11T00:28:34.156Z,102288.59
2019-04-11T00:31:04.222Z,102284.19
2019-04-11T00:33:34.058Z,102283.39
2019-04-11T00:36:04.204Z,102292.06
2019-04-11T00:38:34.096Z,102291.97
2019-04-11T00:41:03.794Z,102294.73
2019-04-11T00:43:37.697Z,102294.22
2019-04-11T00:46:04.396Z,102296.39
2019-04-11T00:48:33.541Z,102298.36
2019-04-11T00:51:03.452Z,102295.31
2019-04-11T00:53:32.515Z,102286.45
2019-04-11T00:56:02.017Z,102296.09
2019-04-11T00:58:31.870Z,102296.09
2019-04-11T01:01:01.764Z,102304.39
2019-04-11T01:03:30.724Z,102303.18
2019-04-11T01:05:59.457Z,102305.86
2019-04-11T01:08:29.381Z,102299.83
2019-04-11T01:10:59.386Z,102306.51
2019-04-11T01:13:39.697Z,102308.88
2019-04-11T01:16:05.026Z,102306.91
2019-04-11T01:18:34.039Z,102312.92
2019-04-11T01:21:02.705Z,102312.12
2019-04-11T01:23:31.496Z,102312.42
2019-04-11T01:26:01.178Z,102314.16
2019-04-11T01:28:31.007Z,102316.06
2019-04-11T01:31:03.327Z,102316.47
2019-04-11T01:33:32.227Z,102313.40
2019-04-11T01:36:01.055Z,102323.62
2019-04-11T01:38:30.900Z,102320.73
2019-04-11T01:41:00.291Z,102324.86
2019-04-11T01:43:29.614Z,102320.63
2019-04-11T01:46:00.100Z,102320.77
2019-04-11T01:48:43.899Z,102322.53
2019-04-11T01:51:13.754Z,102323.25
2019-04-11T01:53:43.580Z,102320.20
2019-04-11T01:56:12.807Z,102321.87
2019-04-11T01:58:42.601Z,102322.23
2019-04-11T02:01:20.962Z,102327.81
2019-04-11T02:04:03.580Z,102330.41
2019-04-11T02:06:32.743Z,102328.24
2019-04-11T02:09:03.746Z,102326.30
2019-04-11T02:11:33.851Z,102325.66
2019-04-11T02:14:10.439Z,102327.92
2019-04-11T02:16:33.468Z,102326.75
2019-04-11T02:19:02.302Z,102325.85
2019-04-11T02:21:31.277Z,102331.25
2019-04-11T02:24:05.924Z,102333.33
2019-04-11T02:26:35.722Z,102335.20
2019-04-11T02:29:05.433Z,102337.06
2019-04-11T02:31:34.961Z,102341.00
2019-04-11T02:34:06.438Z,102336.18
2019-04-11T02:36:36.469Z,102341.79
2019-04-11T02:39:12.946Z,102344.59
2019-04-11T02:41:39.830Z,102341.79
2019-04-11T02:44:28.590Z,102339.92
2019-04-11T02:46:45.843Z,102344.87
2019-04-11T02:49:10.237Z,102342.48
2019-04-11T02:51:40.196Z,102342.91
2019-04-11T02:54:09.163Z,102343.12
2019-04-11T02:56:37.972Z,102348.81
2019-04-11T02:59:06.719Z,102345.50
2019-04-11T03:01:36.301Z,102348.63
2019-04-11T03:04:07.185Z,102343.49
2019-04-11T03:06:36.944Z,102341.84
2019-04-11T03:09:07.256Z,102337.97
2019-04-11T03:11:36.530Z,102343.89
2019-04-11T03:14:05.370Z,102350.85
2019-04-11T03:16:46.098Z,102348.23
2019-04-11T03:19:18.002Z,102352.17
2019-04-11T03:21:39.235Z,102354.84
2019-04-11T03:24:10.364Z,102352.98
2019-04-11T03:26:37.769Z,102352.16
2019-04-11T03:29:08.470Z,102360.56
2019-04-11T03:39:27.747Z,102369.21
2019-04-11T03:41:54.671Z,102359.08
2019-04-11T03:44:18.874Z,102365.88
2019-04-11T03:46:53.925Z,102361.91
2019-04-11T03:49:25.024Z,102362.22
2019-04-11T03:51:45.404Z,102365.50
2019-04-11T03:54:15.703Z,102363.79
2019-04-11T03:56:45.820Z,102364.58
2019-04-11T03:59:16.756Z,102367.82
2019-04-11T04:01:46.750Z,102359.06
2019-04-11T04:04:19.317Z,102366.54
2019-04-11T04:06:47.897Z,102373.75
2019-04-11T04:09:19.220Z,102373.34
2019-04-11T04:11:49.485Z,102370.88
2019-04-11T04:14:34.378Z,102383.31
2019-04-11T04:17:25.344Z,102386.97
2019-04-11T04:20:19.935Z,102388.23
2019-04-11T04:23:03.021Z,102391.59
2019-04-11T04:25:32.522Z,102389.12
2019-04-11T04:28:02.902Z,102395.44
2019-04-11T04:30:33.626Z,102391.19
2019-04-11T04:33:02.860Z,102397.79
2019-04-11T04:35:33.881Z,102401.83
2019-04-11T04:38:05.150Z,102402.31
2019-04-11T04:40:49.604Z,102402.23
2019-04-11T04:43:07.617Z,102411.57
2019-04-11T04:45:59.851Z,102414.14
2019-04-11T04:48:11.490Z,102415.82
2019-04-11T04:50:39.205Z,102425.88
2019-04-11T04:53:09.265Z,102420.16
2019-04-11T04:55:38.845Z,102429.66
2019-04-11T04:58:09.116Z,102428.98
2019-04-11T05:00:39.504Z,102429.50
2019-04-11T05:03:09.883Z,102432.95
2019-04-11T05:05:39.205Z,102435.88
2019-04-11T05:08:08.476Z,102429.07
2019-04-11T05:10:40.181Z,102434.20
2019-04-11T05:13:09.922Z,102435.49
2019-04-11T05:15:41.571Z,102432.53
2019-04-11T05:18:11.478Z,102424.98
2019-04-11T05:20:40.729Z,102433.97
2019-04-11T05:23:09.647Z,102426.66
2019-04-11T05:25:39.059Z,102432.41
2019-04-11T05:28:07.743Z,102433.39
2019-04-11T05:30:36.478Z,102435.31
2019-04-11T05:33:06.010Z,102436.02
2019-04-11T05:35:36.190Z,102435.18
2019-04-11T05:38:05.043Z,102441.20
2019-04-11T05:40:34.380Z,102442.35
2019-04-11T05:43:03.879Z,102446.81
2019-04-11T05:45:33.786Z,102441.77
2019-04-11T05:48:05.153Z,102444.61
2019-04-11T05:50:36.196Z,102440.35
2019-04-11T05:53:05.615Z,102442.38
2019-04-11T05:55:41.560Z,102450.01
2019-04-11T05:58:12.296Z,102448.84
2019-04-11T06:00:50.761Z,102448.94
2019-04-11T06:03:19.604Z,102447.42
2019-04-11T06:05:59.931Z,102449.36
2019-04-11T06:08:29.118Z,102450.42
2019-04-11T06:11:14.578Z,102453.17
2019-04-11T06:13:46.881Z,102452.58
2019-04-11T06:16:16.757Z,102449.47
2019-04-11T06:18:59.068Z,102456.05
2019-04-11T06:21:31.739Z,102459.74
2019-04-11T06:24:18.208Z,102460.09
2019-04-11T06:26:54.646Z,102458.86
2019-04-11T06:29:35.185Z,102465.23
2019-04-11T06:32:23.580Z,102469.59
2019-04-11T06:34:58.071Z,102470.78
2019-04-11T06:37:45.488Z,102464.45
2019-04-11T06:40:24.827Z,102467.92
2019-04-11T06:43:01.447Z,102475.56
2019-04-11T06:45:58.633Z,102475.56
2019-04-11T06:48:35.992Z,102480.52
2019-04-11T06:51:15.613Z,102480.39
2019-04-11T06:53:52.954Z,102475.54
2019-04-11T06:56:36.938Z,102484.39
2019-04-11T06:59:10.158Z,102470.27
2019-04-11T07:01:41.000Z,102470.27
2019-04-11T07:04:25.371Z,102481.72
2019-04-11T07:06:55.880Z,102484.43
2019-04-11T07:09:49.645Z,102488.97
2019-04-11T07:12:25.002Z,102491.63
2019-04-11T07:15:25.180Z,102491.02
2019-04-11T07:18:11.966Z,102500.13
2019-04-11T07:21:00.639Z,102502.53
2019-04-11T07:23:49.010Z,102504.52
2019-04-11T07:26:27.395Z,102498.95
2019-04-11T07:29:21.816Z,102498.95
2019-04-11T07:32:09.423Z,102500.38
2019-04-11T07:34:56.570Z,102504.98
2019-04-11T07:37:36.768Z,102502.66
2019-04-11T07:40:29.369Z,102503.03
2019-04-11T07:43:19.081Z,102503.03
2019-04-11T07:45:55.933Z,102504.02
2019-04-11T07:48:29.241Z,102507.31
2019-04-11T07:51:08.853Z,102506.91
2019-04-11T07:53:40.382Z,102513.28
2019-04-11T07:56:09.840Z,102513.28
2019-04-11T07:58:45.971Z,102519.62
2019-04-11T08:01:40.376Z,102504.52
2019-04-11T08:04:27.765Z,102505.13
2019-04-11T08:07:16.344Z,102505.13
2019-04-11T08:09:50.654Z,102511.70
2019-04-11T08:12:23.465Z,102518.67
2019-04-11T08:15:29.913Z,102519.30
2019-04-11T08:18:01.981Z,102519.30
2019-04-11T08:20:50.008Z,102526.70
2019-04-11T08:23:20.030Z,102523.61
2019-04-11T08:26:17.940Z,102522.46
2019-04-11T08:28:59.283Z,102522.32
2019-04-11T08:31:30.738Z,102527.69
2019-04-11T08:34:02.769Z,102519.89
2019-04-11T08:36:50.495Z,102517.95
2019-04-11T08:39:26.035Z,102520.28
2019-04-11T08:42:17.727Z,102519.09
2019-04-11T08:44:48.016Z,102519.40
2019-04-11T08:47:18.766Z,102521.33
2019-04-11T08:49:52.865Z,102517.14
2019-04-11T08:52:29.791Z,102530.31
2019-04-11T08:55:02.349Z,102521.84
2019-04-11T08:57:34.247Z,102528.91
2019-04-11T09:00:26.203Z,102529.55
2019-04-11T09:03:01.773Z,102529.55
2019-04-11T09:05:41.287Z,102524.89
2019-04-11T09:08:30.032Z,102538.14
2019-04-11T09:11:26.694Z,102545.80
2019-04-11T09:14:20.349Z,102545.80
2019-04-11T09:17:10.616Z,102544.67
2019-04-11T09:20:13.672Z,102544.67
2019-04-11T09:23:01.833Z,102543.64
2019-04-11T09:26:05.676Z,102542.41
2019-04-11T09:28:37.661Z,102538.75
2019-04-11T09:31:41.733Z,102535.45
2019-04-11T09:34:43.928Z,102524.89
2019-04-11T09:37:31.065Z,102524.89
2019-04-11T09:40:26.091Z,102526.76
2019-04-11T09:43:12.962Z,102529.48
2019-04-11T09:46:16.512Z,102525.64
2019-04-11T09:49:04.396Z,102528.77
2019-04-11T09:51:52.019Z,102526.88
2019-04-11T09:54:44.213Z,102519.21
2019-04-11T09:57:32.629Z,102522.84
2019-04-11T10:00:26.579Z,102521.71
2019-04-11T10:03:02.445Z,102529.34
2019-04-11T10:05:59.319Z,102529.34
2019-04-11T10:08:37.435Z,102532.03
2019-04-11T10:11:24.248Z,102544.79
2019-04-11T10:14:02.287Z,102558.48
2019-04-11T10:17:06.554Z,102553.92
2019-04-11T10:19:40.373Z,102565.42
2019-04-11T10:22:29.168Z,102549.05
2019-04-11T10:25:03.356Z,102561.69
2019-04-11T10:27:51.016Z,102556.62
2019-04-11T10:30:48.291Z,102557.78
2019-04-11T10:33:39.489Z,102550.59
2019-04-11T10:36:19.245Z,102551.55
2019-04-11T10:38:49.407Z,102551.55
2019-04-11T10:41:36.089Z,102550.86
2019-04-11T10:44:05.575Z,102547.09
2019-04-11T10:46:59.906Z,102534.47
2019-04-11T10:49:50.891Z,102537.56
2019-04-11T10:52:24.662Z,102535.95
2019-04-11T10:55:21.872Z,102541.45
2019-04-11T10:58:02.655Z,102539.41
2019-04-11T11:00:45.321Z,102535.37
2019-04-11T11:03:22.507Z,102540.55
2019-04-11T11:05:53.597Z,102543.89
2019-04-11T11:08:41.776Z,102553.20
2019-04-11T11:11:30.430Z,102544.52
2019-04-11T11:14:24.871Z,102544.98
2019-04-11T11:17:00.579Z,102544.75
2019-04-11T11:19:59.703Z,102545.42
2019-04-11T11:22:34.472Z,102544.22
2019-04-11T11:25:22.460Z,102544.84
2019-04-11T11:27:52.355Z,102542.20
2019-04-11T11:30:40.246Z,102543.95
2019-04-11T11:33:09.954Z,102534.91
2019-04-11T11:36:02.688Z,102538.77
2019-04-11T11:38:31.274Z,102537.75
2019-04-11T11:41:20.676Z,102543.86
2019-04-11T11:43:50.184Z,102545.21
2019-04-11T11:46:36.337Z,102546.14
2019-04-11T11:49:18.930Z,102544.58
2019-04-11T11:52:11.093Z,102547.80
2019-04-11T11:54:44.173Z,102546.76
2019-04-11T11:57:35.306Z,102549.44
2019-04-11T12:00:16.901Z,102546.28
2019-04-11T12:02:54.039Z,102546.69
2019-04-11T12:05:36.727Z,102553.42
2019-04-11T12:08:24.448Z,102557.70
2019-04-11T12:11:01.766Z,102558.35
2019-04-11T12:13:55.867Z,102558.08
2019-04-11T12:16:33.105Z,102561.30
2019-04-11T12:19:24.914Z,102561.32
2019-04-11T12:21:55.858Z,102559.40
2019-04-11T12:24:46.328Z,102559.73
2019-04-11T12:27:28.942Z,102559.73
2019-04-11T12:30:10.743Z,102561.38
2019-04-11T12:32:52.915Z,102561.38
2019-04-11T12:35:38.123Z,102554.44
2019-04-11T12:38:12.812Z,102558.37
2019-04-11T12:40:59.348Z,102558.37
2019-04-11T12:43:41.323Z,102552.00
2019-04-11T12:46:30.128Z,102553.80
2019-04-11T12:49:06.138Z,102561.13
2019-04-11T12:51:57.146Z,102556.84
2019-04-11T12:54:28.874Z,102556.84
2019-04-11T12:57:19.757Z,102546.80
2019-04-11T12:59:50.038Z,102555.30
2019-04-11T13:02:33.620Z,102553.52
2019-04-11T13:05:03.401Z,102550.56
2019-04-11T13:07:49.908Z,102556.05
2019-04-11T13:10:43.892Z,102549.81
2019-04-11T13:13:30.493Z,102559.56
2019-04-11T13:16:12.064Z,102557.38
2019-04-11T13:19:03.865Z,102555.79
2019-04-11T13:21:39.709Z,102554.14
2019-04-11T13:24:26.324Z,102557.43
2019-04-11T13:27:13.957Z,102559.31
2019-04-11T13:30:04.908Z,102556.86
2019-04-11T13:32:52.793Z,102555.75
2019-04-11T13:35:28.461Z,102551.11
2019-04-11T13:38:11.390Z,102553.40
2019-04-11T13:41:02.861Z,102556.95
2019-04-11T13:43:43.506Z,102546.03
2019-04-11T13:46:26.737Z,102552.99
2019-04-11T13:49:13.501Z,102545.84
2019-04-11T13:52:07.261Z,102557.86
2019-04-11T13:55:01.057Z,102557.86
2019-04-11T13:57:57.936Z,102551.84
2019-04-11T14:00:49.917Z,102548.78
2019-04-11T14:03:43.843Z,102555.17
2019-04-11T14:06:35.981Z,102553.33
2019-04-11T14:09:38.314Z,102553.33
2019-04-11T14:12:12.017Z,102548.64
2019-04-11T14:14:43.828Z,102548.64
2019-04-11T14:17:41.599Z,102554.14
2019-04-11T14:20:30.136Z,102554.14
2019-04-11T14:23:17.469Z,102554.62
2019-04-11T14:26:14.390Z,102548.75
2019-04-11T14:29:14.375Z,102548.75
2019-04-11T14:31:55.706Z,102550.23
2019-04-11T14:34:35.769Z,102547.60
2019-04-11T14:37:15.113Z,102551.86
2019-04-11T14:39:46.540Z,102547.28
2019-04-11T14:42:24.571Z,102542.52
2019-04-11T14:44:53.521Z,102543.85
2019-04-11T14:47:44.128Z,102550.29
2019-04-11T14:50:13.406Z,102548.22
2019-04-11T14:52:59.565Z,102548.22
2019-04-11T14:55:28.572Z,102546.70
2019-04-11T14:58:09.120Z,102550.64
2019-04-11T15:00:42.175Z,102551.92
2019-04-11T15:03:18.163Z,102556.72
2019-04-11T15:06:15.346Z,102556.72
2019-04-11T15:09:03.051Z,102562.05
2019-04-11T15:11:43.496Z,102565.91
2019-04-11T15:14:19.434Z,102565.91
2019-04-11T15:17:10.302Z,102562.03
2019-04-11T15:19:39.444Z,102557.97
2019-04-11T15:22:27.334Z,102566.34
2019-04-11T15:25:01.801Z,102564.73
2019-04-11T15:27:58.829Z,102572.63
2019-04-11T15:30:28.330Z,102572.63
2019-04-11T15:33:14.937Z,102565.53
2019-04-11T15:35:44.167Z,102565.53
2019-04-11T15:38:37.842Z,102562.42
2019-04-11T15:41:07.335Z,102566.61
2019-04-11T15:44:01.343Z,102566.48
2019-04-11T15:46:32.618Z,102561.92
2019-04-11T15:49:23.421Z,102566.42
2019-04-11T15:51:55.904Z,102566.42
2019-04-11T15:54:43.828Z,102563.21
2019-04-11T15:57:37.663Z,102575.08
2019-04-11T16:00:29.357Z,102575.08
2019-04-11T16:03:08.848Z,102569.91
2019-04-11T16:05:55.925Z,102570.23
2019-04-11T16:08:32.891Z,102567.73
2019-04-11T16:11:19.521Z,102561.86
2019-04-11T16:13:59.139Z,102561.86
2019-04-11T16:16:39.713Z,102560.98
2019-04-11T16:19:33.669Z,102560.98
2019-04-11T16:22:24.729Z,102567.81
2019-04-11T16:24:53.282Z,102565.31
2019-04-11T16:27:54.383Z,102565.31
2019-04-11T16:30:23.296Z,102569.36
2019-04-11T16:33:09.893Z,102569.36
2019-04-11T16:35:46.113Z,102571.94
2019-04-11T16:38:18.814Z,102578.00
2019-04-11T16:41:04.458Z,102574.52
2019-04-11T16:43:33.495Z,102571.73
2019-04-11T16:46:24.823Z,102571.73
2019-04-11T16:48:55.892Z,102571.73
2019-04-11T16:51:30.759Z,102571.73
2019-04-11T16:53:55.407Z,102570.10
2019-04-11T16:56:24.158Z,102572.17
2019-04-11T16:58:52.786Z,102505.80
2019-04-11T17:01:23.213Z,102575.77
2019-04-11T17:03:54.897Z,102578.19
2019-04-11T17:06:49.048Z,102574.62
2019-04-11T17:09:29.664Z,102576.52
2019-04-11T17:11:58.413Z,102578.29
2019-04-11T17:14:28.417Z,102583.56
2019-04-11T17:17:00.713Z,102584.05
2019-04-11T17:19:28.799Z,102585.46
2019-04-11T17:21:57.420Z,102584.55
2019-04-11T17:24:26.590Z,102581.97
2019-04-11T17:26:55.179Z,102588.16
2019-04-11T17:29:24.902Z,102587.81
2019-04-11T17:31:56.050Z,102586.97
2019-04-11T17:34:25.273Z,102586.97
2019-04-11T17:36:54.138Z,102602.11
2019-04-11T17:39:22.775Z,102607.71
2019-04-11T17:41:51.439Z,102604.28
2019-04-11T17:44:20.304Z,102604.28
2019-04-11T17:46:49.470Z,102609.92
2019-04-11T17:49:18.141Z,102609.92
2019-04-11T17:51:55.681Z,102613.63
2019-04-11T17:54:17.390Z,102611.20
2019-04-11T17:56:46.285Z,102613.77
2019-04-11T17:59:15.192Z,102621.98
2019-04-11T18:01:43.823Z,102613.86
2019-04-11T18:04:13.619Z,102625.88
2019-04-11T18:06:46.961Z,102624.52
2019-04-11T18:09:13.564Z,102634.78
2019-04-11T18:11:42.704Z,102634.78
2019-04-11T18:14:11.429Z,102637.16
2019-04-11T18:16:40.056Z,102634.95
2019-04-11T18:19:09.877Z,102634.95
2019-04-11T18:21:39.265Z,102640.05
2019-04-11T18:24:08.290Z,102645.48
2019-04-11T18:26:37.190Z,102639.00
2019-04-11T18:29:06.098Z,102643.58
2019-04-11T18:31:34.766Z,102642.20
2019-04-11T18:34:03.466Z,102646.47
2019-04-11T18:36:32.562Z,102651.99
2019-04-11T18:39:05.611Z,102655.45
2019-04-11T18:41:31.941Z,102657.05
2019-04-11T18:44:00.572Z,102656.34
2019-04-11T18:46:29.723Z,102656.34
2019-04-11T18:48:58.879Z,102661.95
2019-04-11T18:51:30.346Z,102661.95
2019-04-11T18:53:58.708Z,102666.81
2019-04-11T18:56:27.844Z,102666.81
2019-04-11T18:58:57.082Z,102667.26
2019-04-11T19:01:26.822Z,102669.03
2019-04-11T19:03:55.772Z,102670.32
2019-04-11T19:06:28.007Z,102670.32
2019-04-11T19:08:55.088Z,102674.42
2019-04-11T19:11:23.861Z,102672.83
2019-04-11T19:13:52.760Z,102677.70
2019-04-11T19:16:21.639Z,102677.70
2019-04-11T19:18:50.297Z,102672.34
2019-04-11T19:21:21.068Z,102677.80
2019-04-11T19:23:49.955Z,102675.84
2019-04-11T19:26:18.859Z,102684.55
2019-04-11T19:28:49.277Z,102685.98
2019-04-11T19:31:18.591Z,102685.98
2019-04-11T19:33:47.429Z,102685.19
2019-04-11T19:36:16.400Z,102673.83
2019-04-11T19:38:45.361Z,102683.03
2019-04-11T19:41:17.101Z,102683.81
2019-04-11T19:43:44.391Z,102683.85
2019-04-11T19:46:13.072Z,102683.85
2019-04-11T19:48:41.720Z,102685.20
2019-04-11T19:51:11.852Z,102684.95
2019-04-11T19:53:40.998Z,102686.83
2019-04-11T19:56:33.064Z,102681.73
2019-04-11T19:59:02.037Z,102682.98
2019-04-11T20:01:31.236Z,102682.98
2019-04-11T20:04:00.482Z,102682.05
2019-04-11T20:06:29.155Z,102682.77
2019-04-11T20:08:58.117Z,102688.48
2019-04-11T20:11:29.434Z,102685.43
2019-04-11T20:14:00.029Z,102688.63
2019-04-11T20:16:28.556Z,102694.66
2019-04-11T20:18:58.600Z,102694.66
2019-04-11T20:21:28.163Z,102694.17
2019-04-11T20:23:57.572Z,102686.14
2019-04-11T20:26:26.860Z,102698.20
2019-04-11T20:28:56.351Z,102695.64
2019-04-11T20:31:24.984Z,102697.41
2019-04-11T20:33:53.624Z,102695.06
2019-04-11T20:36:32.875Z,102699.73
2019-04-11T20:38:53.396Z,102699.73
2019-04-11T20:41:23.252Z,102704.20
2019-04-11T20:43:55.882Z,102712.23
2019-04-11T20:46:23.683Z,102711.53
2019-04-11T20:48:54.632Z,102707.27
2019-04-11T20:51:23.364Z,102705.19
2019-04-11T20:53:52.246Z,102706.60
2019-04-11T20:56:24.436Z,102705.32
2019-04-11T20:58:52.091Z,102701.45
2019-04-11T21:01:21.161Z,102698.89
2019-04-11T21:03:50.024Z,102700.97
2019-04-11T21:06:18.656Z,102693.92
2019-04-11T21:08:47.635Z,102688.69
2019-04-11T21:11:18.637Z,102691.44
2019-04-11T21:13:47.458Z,102695.34
2019-04-11T21:16:16.247Z,102696.84
2019-04-11T21:18:45.122Z,102694.72
2019-04-11T21:21:13.992Z,102702.17
2019-04-11T21:23:42.860Z,102705.32
2019-04-11T21:26:11.503Z,102707.19
2019-04-11T21:28:40.455Z,102706.52
2019-04-11T21:31:09.260Z,102708.37
2019-04-11T21:33:38.156Z,102707.09
2019-04-11T21:36:07.257Z,102705.72
2019-04-11T21:38:35.861Z,102710.46
2019-04-11T21:41:06.112Z,102707.72
2019-04-11T21:43:36.300Z,102705.36
2019-04-11T21:46:06.951Z,102705.36
2019-04-11T21:48:36.644Z,102703.94
2019-04-11T21:51:06.093Z,102704.74
2019-04-11T21:53:36.885Z,102697.64
2019-04-11T21:56:05.119Z,102700.61
2019-04-11T21:58:33.971Z,102696.94
2019-04-11T22:01:07.989Z,102694.77
2019-04-11T22:03:37.219Z,102702.02
2019-04-11T22:06:06.179Z,102705.32
2019-04-11T22:08:35.126Z,102708.11
2019-04-11T22:11:04.351Z,102710.28
2019-04-11T22:13:33.225Z,102707.26
2019-04-11T22:16:01.860Z,102713.96
2019-04-11T22:18:30.531Z,102714.17
2019-04-11T22:20:59.407Z,102705.88
2019-04-11T22:23:28.836Z,102708.33
2019-04-11T22:25:57.705Z,102713.38
2019-04-11T22:28:26.555Z,102709.22
2019-04-11T22:30:55.768Z,102708.23
2019-04-11T22:33:31.514Z,102708.23
2019-04-11T22:36:00.156Z,102707.53
2019-04-11T22:38:30.976Z,102716.05
2019-04-11T22:41:02.036Z,102714.76
2019-04-11T22:43:30.363Z,102719.72
2019-04-11T22:45:59.692Z,102722.08
2019-04-11T22:48:28.307Z,102728.11
2019-04-11T22:50:57.283Z,102729.12
2019-04-11T22:53:25.886Z,102722.69
2019-04-11T22:55:55.003Z,102728.81
2019-04-11T22:58:24.167Z,102728.41
2019-04-11T23:00:53.272Z,102723.45
2019-04-11T23:03:26.026Z,102729.78
2019-04-11T23:05:54.885Z,102731.59
2019-04-11T23:08:23.778Z,102730.98
2019-04-11T23:10:52.415Z,102726.45
2019-04-11T23:13:21.705Z,102731.02
2019-04-11T23:15:50.573Z,102732.17
2019-04-11T23:18:19.311Z,102729.61
2019-04-11T23:20:47.901Z,102734.05
2019-04-11T23:23:16.765Z,102731.20
2019-04-11T23:25:46.051Z,102731.20
2019-04-11T23:28:15.875Z,102726.55
2019-04-11T23:30:49.506Z,102730.70
2019-04-11T23:33:15.761Z,102723.39
2019-04-11T23:35:44.979Z,102724.98
2019-04-11T23:38:13.867Z,102720.72
2019-04-11T23:40:42.500Z,102717.08
2019-04-11T23:43:11.461Z,102726.26
2019-04-11T23:45:40.349Z,102727.55
2019-04-11T23:48:09.226Z,102723.50
2019-04-11T23:50:38.301Z,102724.11
2019-04-11T23:53:07.442Z,102725.09
2019-04-11T23:55:36.308Z,102718.19
2019-04-11T23:58:05.622Z,102721.14
